KKX weather

Kikai Airport
Kikai, Kagoshima Prefecture, Japan

Public forecast

Using degrees Celsius for public forecast. Weather courtesy of forecast.io.

Closest aviation weather report (METAR) to Kikai Airport

Closest report is Amami Airport, 13.1 nm (24.3 km) WNW. Retrieved 2019/11/18 10:00 UTC (6 minutes ago):

RJKA 181000Z 33007KT 300V360 3500 -SHRA FEW008 SCT010 BKN015 21/20 Q1015

Closest aviation forecast (TAF) to Kikai Airport

Closest forecast is Kadena Air Base, 164.9 nm (305.4 km) SW. Retrieved 2019/11/18 08:12 UTC (2 hours ago):

TAF RODN 180800Z 1808/1914 33012KT 6000 -SHRA BKN005 BKN030 QNH2991INS TEMPO 1808/1810 4800 RA SCT005 BKN020 BECMG 1809/1810 34015G20KT 8000 -SHRA FEW015 OVC040 QNH2994INS BECMG 1811/1812 36020G30KT 9999 NSW SCT015 OVC030 510002 QNH2997INS BECMG 1823/1824 02015G20KT 9999 SCT020 BKN030 QNH3005INS BECMG 1903/1904 02012G18KT 9999 BKN030 QNH3010INS TX23/1905Z TN20/1821Z